sensor_id;sensor_type;location;lat;lon;timestamp;P1;durP1;ratioP1;P2;durP2;ratioP2
74972;SDS011;63529;56.320;43.990;2023-02-15T00:01:07;26.70;;;9.63;;
74972;SDS011;63529;56.320;43.990;2023-02-15T00:03:33;36.45;;;11.07;;
74972;SDS011;63529;56.320;43.990;2023-02-15T00:05:59;27.98;;;9.70;;
74972;SDS011;63529;56.320;43.990;2023-02-15T00:08:25;23.17;;;10.10;;
74972;SDS011;63529;56.320;43.990;2023-02-15T00:10:51;29.55;;;10.80;;
74972;SDS011;63529;56.320;43.990;2023-02-15T00:13:17;26.83;;;9.30;;
74972;SDS011;63529;56.320;43.990;2023-02-15T00:15:43;24.63;;;9.10;;
74972;SDS011;63529;56.320;43.990;2023-02-15T00:18:09;27.48;;;9.52;;
74972;SDS011;63529;56.320;43.990;2023-02-15T00:20:35;22.85;;;10.02;;
74972;SDS011;63529;56.320;43.990;2023-02-15T00:23:01;24.75;;;9.27;;
74972;SDS011;63529;56.320;43.990;2023-02-15T00:25:26;26.13;;;9.88;;
74972;SDS011;63529;56.320;43.990;2023-02-15T00:27:52;25.45;;;9.82;;
74972;SDS011;63529;56.320;43.990;2023-02-15T00:30:18;25.83;;;9.15;;
74972;SDS011;63529;56.320;43.990;2023-02-15T00:32:45;25.58;;;9.85;;
74972;SDS011;63529;56.320;43.990;2023-02-15T00:35:13;27.58;;;9.73;;
74972;SDS011;63529;56.320;43.990;2023-02-15T00:37:39;23.63;;;8.85;;
74972;SDS011;63529;56.320;43.990;2023-02-15T00:40:05;24.00;;;9.75;;
74972;SDS011;63529;56.320;43.990;2023-02-15T00:42:31;29.63;;;10.27;;
74972;SDS011;63529;56.320;43.990;2023-02-15T00:44:57;26.40;;;9.50;;
74972;SDS011;63529;56.320;43.990;2023-02-15T00:47:23;29.63;;;11.20;;
74972;SDS011;63529;56.320;43.990;2023-02-15T00:49:50;22.35;;;9.07;;
74972;SDS011;63529;56.320;43.990;2023-02-15T00:52:17;21.85;;;9.18;;
74972;SDS011;63529;56.320;43.990;2023-02-15T00:54:42;25.83;;;10.93;;
74972;SDS011;63529;56.320;43.990;2023-02-15T00:57:08;23.45;;;9.85;;
74972;SDS011;63529;56.320;43.990;2023-02-15T00:59:34;23.70;;;9.57;;
74972;SDS011;63529;56.320;43.990;2023-02-15T01:02:00;25.80;;;9.43;;
74972;SDS011;63529;56.320;43.990;2023-02-15T01:04:26;21.77;;;9.82;;
74972;SDS011;63529;56.320;43.990;2023-02-15T01:06:52;23.63;;;8.90;;
74972;SDS011;63529;56.320;43.990;2023-02-15T01:09:18;28.00;;;9.93;;
74972;SDS011;63529;56.320;43.990;2023-02-15T01:11:44;24.95;;;9.23;;
74972;SDS011;63529;56.320;43.990;2023-02-15T01:14:10;27.52;;;10.10;;
74972;SDS011;63529;56.320;43.990;2023-02-15T01:16:37;27.33;;;9.68;;
74972;SDS011;63529;56.320;43.990;2023-02-15T01:19:04;26.75;;;9.10;;
74972;SDS011;63529;56.320;43.990;2023-02-15T01:21:31;26.73;;;10.52;;
74972;SDS011;63529;56.320;43.990;2023-02-15T01:24:00;25.25;;;10.27;;
74972;SDS011;63529;56.320;43.990;2023-02-15T01:26:26;28.38;;;9.60;;
74972;SDS011;63529;56.320;43.990;2023-02-15T01:28:52;25.35;;;8.75;;
74972;SDS011;63529;56.320;43.990;2023-02-15T01:31:18;21.38;;;8.45;;
74972;SDS011;63529;56.320;43.990;2023-02-15T01:33:46;24.60;;;8.90;;
74972;SDS011;63529;56.320;43.990;2023-02-15T01:36:13;25.63;;;9.70;;
74972;SDS011;63529;56.320;43.990;2023-02-15T01:38:39;26.98;;;10.60;;
74972;SDS011;63529;56.320;43.990;2023-02-15T01:41:06;23.45;;;9.68;;
74972;SDS011;63529;56.320;43.990;2023-02-15T01:43:58;22.67;;;9.90;;
74972;SDS011;63529;56.320;43.990;2023-02-15T01:46:35;23.30;;;9.38;;
74972;SDS011;63529;56.320;43.990;2023-02-15T01:49:10;25.05;;;8.45;;
74972;SDS011;63529;56.320;43.990;2023-02-15T01:51:39;27.30;;;10.20;;
74972;SDS011;63529;56.320;43.990;2023-02-15T01:56:44;25.25;;;9.07;;
74972;SDS011;63529;56.320;43.990;2023-02-15T01:59:11;22.77;;;9.05;;
74972;SDS011;63529;56.320;43.990;2023-02-15T02:01:42;26.40;;;9.18;;
74972;SDS011;63529;56.320;43.990;2023-02-15T02:07:05;21.95;;;8.48;;
74972;SDS011;63529;56.320;43.990;2023-02-15T02:09:32;24.35;;;7.82;;
74972;SDS011;63529;56.320;43.990;2023-02-15T02:11:58;22.08;;;9.05;;
74972;SDS011;63529;56.320;43.990;2023-02-15T02:14:25;23.17;;;10.00;;
74972;SDS011;63529;56.320;43.990;2023-02-15T02:33:45;24.40;;;8.68;;
74972;SDS011;63529;56.320;43.990;2023-02-15T02:36:19;17.42;;;6.80;;
74972;SDS011;63529;56.320;43.990;2023-02-15T02:47:12;17.85;;;7.20;;
74972;SDS011;63529;56.320;43.990;2023-02-15T02:54:57;26.80;;;9.77;;
74972;SDS011;63529;56.320;43.990;2023-02-15T02:57:24;19.88;;;7.65;;
74972;SDS011;63529;56.320;43.990;2023-02-15T02:59:53;21.75;;;8.45;;
74972;SDS011;63529;56.320;43.990;2023-02-15T03:02:24;22.45;;;8.70;;
74972;SDS011;63529;56.320;43.990;2023-02-15T03:04:58;20.35;;;8.68;;
74972;SDS011;63529;56.320;43.990;2023-02-15T03:07:32;24.67;;;9.13;;
74972;SDS011;63529;56.320;43.990;2023-02-15T03:10:02;25.65;;;9.75;;
74972;SDS011;63529;56.320;43.990;2023-02-15T03:12:32;20.08;;;8.35;;
74972;SDS011;63529;56.320;43.990;2023-02-15T03:15:03;26.55;;;9.65;;
74972;SDS011;63529;56.320;43.990;2023-02-15T03:17:33;24.92;;;10.07;;
74972;SDS011;63529;56.320;43.990;2023-02-15T03:20:27;28.17;;;10.55;;
74972;SDS011;63529;56.320;43.990;2023-02-15T03:23:01;21.90;;;9.38;;
74972;SDS011;63529;56.320;43.990;2023-02-15T03:25:32;23.38;;;9.55;;
74972;SDS011;63529;56.320;43.990;2023-02-15T03:28:11;26.75;;;10.00;;
74972;SDS011;63529;56.320;43.990;2023-02-15T03:30:42;26.92;;;9.05;;
74972;SDS011;63529;56.320;43.990;2023-02-15T03:35:40;19.55;;;8.38;;
74972;SDS011;63529;56.320;43.990;2023-02-15T03:38:16;26.48;;;9.48;;
74972;SDS011;63529;56.320;43.990;2023-02-15T03:40:46;24.95;;;9.57;;
74972;SDS011;63529;56.320;43.990;2023-02-15T03:49:19;23.65;;;9.25;;
74972;SDS011;63529;56.320;43.990;2023-02-15T03:51:50;23.23;;;9.10;;
74972;SDS011;63529;56.320;43.990;2023-02-15T03:54:20;23.27;;;8.55;;
74972;SDS011;63529;56.320;43.990;2023-02-15T03:57:09;22.95;;;7.97;;
74972;SDS011;63529;56.320;43.990;2023-02-15T04:00:03;21.58;;;9.40;;
74972;SDS011;63529;56.320;43.990;2023-02-15T04:05:22;18.55;;;8.27;;
74972;SDS011;63529;56.320;43.990;2023-02-15T04:07:49;19.02;;;7.50;;
74972;SDS011;63529;56.320;43.990;2023-02-15T04:10:15;21.17;;;8.85;;
74972;SDS011;63529;56.320;43.990;2023-02-15T04:12:59;25.60;;;9.05;;
74972;SDS011;63529;56.320;43.990;2023-02-15T04:15:25;24.52;;;9.55;;
74972;SDS011;63529;56.320;43.990;2023-02-15T04:18:09;20.92;;;8.45;;
74972;SDS011;63529;56.320;43.990;2023-02-15T04:20:35;24.23;;;9.32;;
74972;SDS011;63529;56.320;43.990;2023-02-15T04:23:19;23.83;;;8.15;;
74972;SDS011;63529;56.320;43.990;2023-02-15T04:26:04;22.65;;;9.15;;
74972;SDS011;63529;56.320;43.990;2023-02-15T04:28:30;31.55;;;9.57;;
74972;SDS011;63529;56.320;43.990;2023-02-15T04:30:56;27.75;;;9.90;;
74972;SDS011;63529;56.320;43.990;2023-02-15T04:33:23;27.30;;;9.38;;
74972;SDS011;63529;56.320;43.990;2023-02-15T04:35:48;21.83;;;8.57;;
74972;SDS011;63529;56.320;43.990;2023-02-15T04:38:14;22.63;;;9.20;;
74972;SDS011;63529;56.320;43.990;2023-02-15T04:40:40;26.83;;;10.25;;
74972;SDS011;63529;56.320;43.990;2023-02-15T04:43:06;28.50;;;9.75;;
74972;SDS011;63529;56.320;43.990;2023-02-15T04:45:32;24.13;;;8.98;;
74972;SDS011;63529;56.320;43.990;2023-02-15T04:47:58;28.27;;;8.38;;
74972;SDS011;63529;56.320;43.990;2023-02-15T04:50:23;26.50;;;9.98;;
74972;SDS011;63529;56.320;43.990;2023-02-15T04:52:49;21.77;;;7.50;;
74972;SDS011;63529;56.320;43.990;2023-02-15T04:55:15;29.48;;;10.05;;
74972;SDS011;63529;56.320;43.990;2023-02-15T04:57:41;25.77;;;9.52;;
74972;SDS011;63529;56.320;43.990;2023-02-15T05:00:07;24.60;;;10.13;;
74972;SDS011;63529;56.320;43.990;2023-02-15T05:02:34;27.08;;;8.95;;
74972;SDS011;63529;56.320;43.990;2023-02-15T05:05:00;25.25;;;9.25;;
74972;SDS011;63529;56.320;43.990;2023-02-15T05:07:26;22.63;;;8.88;;
74972;SDS011;63529;56.320;43.990;2023-02-15T05:09:51;19.13;;;8.27;;
74972;SDS011;63529;56.320;43.990;2023-02-15T05:12:17;26.45;;;9.88;;
74972;SDS011;63529;56.320;43.990;2023-02-15T05:14:43;22.88;;;8.98;;
74972;SDS011;63529;56.320;43.990;2023-02-15T05:17:09;20.75;;;7.90;;
74972;SDS011;63529;56.320;43.990;2023-02-15T05:19:35;24.92;;;9.43;;
74972;SDS011;63529;56.320;43.990;2023-02-15T05:22:01;24.10;;;8.45;;
74972;SDS011;63529;56.320;43.990;2023-02-15T05:24:26;25.70;;;9.05;;
74972;SDS011;63529;56.320;43.990;2023-02-15T05:27:11;25.60;;;9.15;;
74972;SDS011;63529;56.320;43.990;2023-02-15T05:29:57;21.50;;;9.00;;
74972;SDS011;63529;56.320;43.990;2023-02-15T05:32:23;25.33;;;9.82;;
74972;SDS011;63529;56.320;43.990;2023-02-15T05:34:49;26.98;;;10.48;;
74972;SDS011;63529;56.320;43.990;2023-02-15T05:37:15;26.38;;;10.05;;
74972;SDS011;63529;56.320;43.990;2023-02-15T05:39:41;22.52;;;8.65;;
74972;SDS011;63529;56.320;43.990;2023-02-15T05:42:06;21.33;;;8.30;;
74972;SDS011;63529;56.320;43.990;2023-02-15T05:44:32;28.02;;;9.80;;
74972;SDS011;63529;56.320;43.990;2023-02-15T05:46:58;20.60;;;8.07;;
74972;SDS011;63529;56.320;43.990;2023-02-15T05:49:24;25.75;;;10.18;;
74972;SDS011;63529;56.320;43.990;2023-02-15T05:51:50;26.55;;;10.63;;
74972;SDS011;63529;56.320;43.990;2023-02-15T05:54:16;20.02;;;7.75;;
74972;SDS011;63529;56.320;43.990;2023-02-15T05:56:42;20.63;;;8.38;;
74972;SDS011;63529;56.320;43.990;2023-02-15T05:59:09;19.10;;;7.05;;
74972;SDS011;63529;56.320;43.990;2023-02-15T06:01:35;24.98;;;9.32;;
74972;SDS011;63529;56.320;43.990;2023-02-15T06:04:01;19.17;;;7.60;;
74972;SDS011;63529;56.320;43.990;2023-02-15T06:06:26;25.23;;;10.50;;
74972;SDS011;63529;56.320;43.990;2023-02-15T06:08:52;16.52;;;7.30;;
74972;SDS011;63529;56.320;43.990;2023-02-15T06:11:18;20.92;;;8.90;;
74972;SDS011;63529;56.320;43.990;2023-02-15T06:13:44;20.70;;;9.40;;
74972;SDS011;63529;56.320;43.990;2023-02-15T06:16:10;25.38;;;9.82;;
74972;SDS011;63529;56.320;43.990;2023-02-15T06:18:36;17.50;;;7.78;;
74972;SDS011;63529;56.320;43.990;2023-02-15T06:21:02;31.83;;;12.43;;
74972;SDS011;63529;56.320;43.990;2023-02-15T06:23:28;19.27;;;8.60;;
74972;SDS011;63529;56.320;43.990;2023-02-15T06:25:53;20.67;;;10.05;;
74972;SDS011;63529;56.320;43.990;2023-02-15T06:28:19;19.88;;;8.27;;
74972;SDS011;63529;56.320;43.990;2023-02-15T06:30:45;18.77;;;8.15;;
74972;SDS011;63529;56.320;43.990;2023-02-15T06:33:11;15.35;;;7.05;;
74972;SDS011;63529;56.320;43.990;2023-02-15T06:35:37;21.83;;;8.93;;
74972;SDS011;63529;56.320;43.990;2023-02-15T06:38:03;22.55;;;9.45;;
74972;SDS011;63529;56.320;43.990;2023-02-15T06:40:29;20.58;;;8.70;;
74972;SDS011;63529;56.320;43.990;2023-02-15T06:42:55;20.50;;;8.50;;
74972;SDS011;63529;56.320;43.990;2023-02-15T06:45:22;16.73;;;7.22;;
74972;SDS011;63529;56.320;43.990;2023-02-15T06:47:48;17.80;;;8.20;;
74972;SDS011;63529;56.320;43.990;2023-02-15T06:50:14;16.73;;;7.40;;
74972;SDS011;63529;56.320;43.990;2023-02-15T06:52:40;16.80;;;7.50;;
74972;SDS011;63529;56.320;43.990;2023-02-15T06:55:06;17.25;;;8.07;;
74972;SDS011;63529;56.320;43.990;2023-02-15T06:57:32;14.93;;;7.28;;
74972;SDS011;63529;56.320;43.990;2023-02-15T06:59:59;15.52;;;7.25;;
74972;SDS011;63529;56.320;43.990;2023-02-15T07:02:25;16.90;;;7.45;;
74972;SDS011;63529;56.320;43.990;2023-02-15T07:04:51;20.15;;;7.95;;
74972;SDS011;63529;56.320;43.990;2023-02-15T07:07:17;21.02;;;8.60;;
74972;SDS011;63529;56.320;43.990;2023-02-15T07:09:43;15.88;;;7.20;;
74972;SDS011;63529;56.320;43.990;2023-02-15T07:12:09;17.23;;;7.93;;
74972;SDS011;63529;56.320;43.990;2023-02-15T07:14:53;19.55;;;8.10;;
74972;SDS011;63529;56.320;43.990;2023-02-15T07:17:20;17.05;;;8.35;;
74972;SDS011;63529;56.320;43.990;2023-02-15T07:19:46;20.05;;;8.95;;
74972;SDS011;63529;56.320;43.990;2023-02-15T07:22:12;20.33;;;9.93;;
74972;SDS011;63529;56.320;43.990;2023-02-15T07:24:38;16.15;;;8.25;;
74972;SDS011;63529;56.320;43.990;2023-02-15T07:27:03;17.88;;;8.55;;
74972;SDS011;63529;56.320;43.990;2023-02-15T07:29:31;18.75;;;8.40;;
74972;SDS011;63529;56.320;43.990;2023-02-15T07:31:57;17.73;;;8.40;;
74972;SDS011;63529;56.320;43.990;2023-02-15T07:34:23;17.95;;;8.32;;
74972;SDS011;63529;56.320;43.990;2023-02-15T07:36:50;16.50;;;7.80;;
74972;SDS011;63529;56.320;43.990;2023-02-15T07:39:17;18.70;;;8.70;;
74972;SDS011;63529;56.320;43.990;2023-02-15T07:41:43;16.63;;;8.15;;
74972;SDS011;63529;56.320;43.990;2023-02-15T07:44:11;19.20;;;8.90;;
74972;SDS011;63529;56.320;43.990;2023-02-15T07:46:39;17.98;;;8.20;;
74972;SDS011;63529;56.320;43.990;2023-02-15T07:49:05;16.35;;;7.80;;
74972;SDS011;63529;56.320;43.990;2023-02-15T07:51:31;13.30;;;6.95;;
74972;SDS011;63529;56.320;43.990;2023-02-15T07:53:56;16.92;;;8.27;;
74972;SDS011;63529;56.320;43.990;2023-02-15T07:56:22;16.17;;;7.32;;
74972;SDS011;63529;56.320;43.990;2023-02-15T07:58:48;18.13;;;9.68;;
74972;SDS011;63529;56.320;43.990;2023-02-15T08:01:19;22.60;;;10.48;;
74972;SDS011;63529;56.320;43.990;2023-02-15T08:03:49;20.77;;;10.63;;
74972;SDS011;63529;56.320;43.990;2023-02-15T08:06:15;16.20;;;7.55;;
74972;SDS011;63529;56.320;43.990;2023-02-15T08:08:42;15.15;;;7.57;;
74972;SDS011;63529;56.320;43.990;2023-02-15T08:16:31;19.23;;;8.70;;
74972;SDS011;63529;56.320;43.990;2023-02-15T08:18:58;15.55;;;7.30;;
74972;SDS011;63529;56.320;43.990;2023-02-15T08:21:26;17.17;;;10.02;;
74972;SDS011;63529;56.320;43.990;2023-02-15T08:23:54;13.82;;;6.53;;
74972;SDS011;63529;56.320;43.990;2023-02-15T08:26:21;13.05;;;7.78;;
74972;SDS011;63529;56.320;43.990;2023-02-15T08:28:50;16.88;;;9.38;;
74972;SDS011;63529;56.320;43.990;2023-02-15T08:31:16;14.15;;;7.32;;
74972;SDS011;63529;56.320;43.990;2023-02-15T08:33:43;15.95;;;8.60;;
74972;SDS011;63529;56.320;43.990;2023-02-15T08:36:11;12.63;;;7.15;;
74972;SDS011;63529;56.320;43.990;2023-02-15T08:38:39;13.15;;;8.13;;
74972;SDS011;63529;56.320;43.990;2023-02-15T08:41:09;13.98;;;8.90;;
74972;SDS011;63529;56.320;43.990;2023-02-15T08:43:49;14.57;;;8.23;;
74972;SDS011;63529;56.320;43.990;2023-02-15T08:46:20;15.60;;;8.73;;
74972;SDS011;63529;56.320;43.990;2023-02-15T08:48:47;14.13;;;8.55;;
74972;SDS011;63529;56.320;43.990;2023-02-15T08:51:14;13.15;;;8.40;;
74972;SDS011;63529;56.320;43.990;2023-02-15T08:53:45;15.50;;;8.68;;
74972;SDS011;63529;56.320;43.990;2023-02-15T08:56:16;12.98;;;8.18;;
74972;SDS011;63529;56.320;43.990;2023-02-15T08:58:44;13.52;;;7.88;;
74972;SDS011;63529;56.320;43.990;2023-02-15T09:01:11;11.77;;;8.00;;
74972;SDS011;63529;56.320;43.990;2023-02-15T09:03:39;11.75;;;7.60;;
74972;SDS011;63529;56.320;43.990;2023-02-15T09:06:06;13.38;;;7.80;;
74972;SDS011;63529;56.320;43.990;2023-02-15T09:08:32;12.25;;;7.40;;
74972;SDS011;63529;56.320;43.990;2023-02-15T09:11:05;12.25;;;8.23;;
74972;SDS011;63529;56.320;43.990;2023-02-15T09:13:39;12.50;;;7.72;;
74972;SDS011;63529;56.320;43.990;2023-02-15T09:16:06;14.27;;;7.82;;
74972;SDS011;63529;56.320;43.990;2023-02-15T09:18:37;14.93;;;8.90;;
74972;SDS011;63529;56.320;43.990;2023-02-15T09:21:08;15.80;;;9.05;;
74972;SDS011;63529;56.320;43.990;2023-02-15T09:23:42;12.75;;;7.78;;
74972;SDS011;63529;56.320;43.990;2023-02-15T09:26:11;13.65;;;8.43;;
74972;SDS011;63529;56.320;43.990;2023-02-15T09:28:39;14.75;;;7.72;;
74972;SDS011;63529;56.320;43.990;2023-02-15T09:31:09;14.88;;;8.15;;
74972;SDS011;63529;56.320;43.990;2023-02-15T09:33:47;18.33;;;8.20;;
74972;SDS011;63529;56.320;43.990;2023-02-15T09:36:18;10.85;;;6.85;;
74972;SDS011;63529;56.320;43.990;2023-02-15T09:39:01;16.80;;;7.97;;
74972;SDS011;63529;56.320;43.990;2023-02-15T09:57:32;12.50;;;6.55;;
74972;SDS011;63529;56.320;43.990;2023-02-15T10:11:40;12.23;;;6.55;;
74972;SDS011;63529;56.320;43.990;2023-02-15T10:14:15;15.30;;;7.60;;
74972;SDS011;63529;56.320;43.990;2023-02-15T10:19:57;13.73;;;6.45;;
74972;SDS011;63529;56.320;43.990;2023-02-15T10:25:26;19.45;;;8.82;;
74972;SDS011;63529;56.320;43.990;2023-02-15T10:27:55;15.43;;;7.75;;
74972;SDS011;63529;56.320;43.990;2023-02-15T10:30:51;14.27;;;7.57;;
74972;SDS011;63529;56.320;43.990;2023-02-15T10:38:40;18.55;;;7.40;;
74972;SDS011;63529;56.320;43.990;2023-02-15T10:44:05;14.70;;;6.47;;
74972;SDS011;63529;56.320;43.990;2023-02-15T10:49:34;14.15;;;6.82;;
74972;SDS011;63529;56.320;43.990;2023-02-15T10:57:38;12.95;;;6.13;;
74972;SDS011;63529;56.320;43.990;2023-02-15T11:06:09;11.57;;;6.20;;
74972;SDS011;63529;56.320;43.990;2023-02-15T11:08:42;14.80;;;7.45;;
74972;SDS011;63529;56.320;43.990;2023-02-15T11:11:34;13.88;;;7.25;;
74972;SDS011;63529;56.320;43.990;2023-02-15T11:14:04;16.38;;;8.18;;
74972;SDS011;63529;56.320;43.990;2023-02-15T11:16:40;14.65;;;7.78;;
74972;SDS011;63529;56.320;43.990;2023-02-15T11:21:43;13.95;;;6.53;;
74972;SDS011;63529;56.320;43.990;2023-02-15T11:24:24;14.55;;;7.32;;
74972;SDS011;63529;56.320;43.990;2023-02-15T11:26:57;14.70;;;7.28;;
74972;SDS011;63529;56.320;43.990;2023-02-15T11:29:36;13.75;;;6.60;;
74972;SDS011;63529;56.320;43.990;2023-02-15T11:37:58;16.17;;;7.20;;
74972;SDS011;63529;56.320;43.990;2023-02-15T11:40:51;13.55;;;5.75;;
74972;SDS011;63529;56.320;43.990;2023-02-15T11:43:34;11.68;;;6.10;;
74972;SDS011;63529;56.320;43.990;2023-02-15T11:46:19;11.50;;;5.82;;
74972;SDS011;63529;56.320;43.990;2023-02-15T11:48:47;11.77;;;6.97;;
74972;SDS011;63529;56.320;43.990;2023-02-15T11:51:14;14.07;;;6.40;;
74972;SDS011;63529;56.320;43.990;2023-02-15T11:53:43;12.55;;;6.32;;
74972;SDS011;63529;56.320;43.990;2023-02-15T11:56:16;12.27;;;6.25;;
74972;SDS011;63529;56.320;43.990;2023-02-15T11:58:47;18.35;;;7.97;;
74972;SDS011;63529;56.320;43.990;2023-02-15T12:01:33;17.67;;;8.10;;
74972;SDS011;63529;56.320;43.990;2023-02-15T12:06:58;14.27;;;7.05;;
74972;SDS011;63529;56.320;43.990;2023-02-15T12:09:30;16.42;;;7.10;;
74972;SDS011;63529;56.320;43.990;2023-02-15T12:12:20;14.73;;;6.90;;
74972;SDS011;63529;56.320;43.990;2023-02-15T12:14:53;15.80;;;7.70;;
74972;SDS011;63529;56.320;43.990;2023-02-15T12:17:24;13.70;;;7.07;;
74972;SDS011;63529;56.320;43.990;2023-02-15T12:19:56;14.30;;;7.18;;
74972;SDS011;63529;56.320;43.990;2023-02-15T12:22:30;14.43;;;6.63;;
74972;SDS011;63529;56.320;43.990;2023-02-15T12:25:01;15.23;;;6.65;;
74972;SDS011;63529;56.320;43.990;2023-02-15T12:30:01;18.92;;;7.95;;
74972;SDS011;63529;56.320;43.990;2023-02-15T12:32:46;15.15;;;7.03;;
74972;SDS011;63529;56.320;43.990;2023-02-15T12:35:27;15.43;;;7.40;;
74972;SDS011;63529;56.320;43.990;2023-02-15T12:38:09;16.50;;;7.80;;
74972;SDS011;63529;56.320;43.990;2023-02-15T12:41:04;14.70;;;6.45;;
74972;SDS011;63529;56.320;43.990;2023-02-15T12:43:47;16.35;;;7.40;;
74972;SDS011;63529;56.320;43.990;2023-02-15T12:46:33;18.58;;;11.55;;
74972;SDS011;63529;56.320;43.990;2023-02-15T12:56:57;13.85;;;6.85;;
74972;SDS011;63529;56.320;43.990;2023-02-15T12:59:24;12.20;;;6.60;;
74972;SDS011;63529;56.320;43.990;2023-02-15T13:01:51;17.73;;;7.97;;
74972;SDS011;63529;56.320;43.990;2023-02-15T13:04:23;14.45;;;6.95;;
74972;SDS011;63529;56.320;43.990;2023-02-15T13:06:52;16.17;;;7.35;;
74972;SDS011;63529;56.320;43.990;2023-02-15T13:12:20;15.57;;;7.65;;
74972;SDS011;63529;56.320;43.990;2023-02-15T13:14:52;15.13;;;7.50;;
74972;SDS011;63529;56.320;43.990;2023-02-15T13:17:26;20.05;;;8.20;;
74972;SDS011;63529;56.320;43.990;2023-02-15T13:19:56;17.95;;;8.00;;
74972;SDS011;63529;56.320;43.990;2023-02-15T13:22:39;17.83;;;8.48;;
74972;SDS011;63529;56.320;43.990;2023-02-15T13:25:10;32.67;;;13.45;;
74972;SDS011;63529;56.320;43.990;2023-02-15T13:27:38;16.65;;;7.78;;
74972;SDS011;63529;56.320;43.990;2023-02-15T13:30:23;14.18;;;7.03;;
74972;SDS011;63529;56.320;43.990;2023-02-15T13:32:52;15.57;;;7.43;;
74972;SDS011;63529;56.320;43.990;2023-02-15T13:35:30;14.60;;;7.18;;
74972;SDS011;63529;56.320;43.990;2023-02-15T13:38:16;16.98;;;7.45;;
74972;SDS011;63529;56.320;43.990;2023-02-15T13:41:09;14.77;;;6.97;;
74972;SDS011;63529;56.320;43.990;2023-02-15T13:49:43;13.07;;;6.72;;
74972;SDS011;63529;56.320;43.990;2023-02-15T13:52:21;15.25;;;7.28;;
74972;SDS011;63529;56.320;43.990;2023-02-15T14:00:36;17.27;;;7.20;;
74972;SDS011;63529;56.320;43.990;2023-02-15T14:22:40;15.50;;;7.32;;
74972;SDS011;63529;56.320;43.990;2023-02-15T14:25:28;16.85;;;6.80;;
74972;SDS011;63529;56.320;43.990;2023-02-15T14:30:56;15.45;;;7.15;;
74972;SDS011;63529;56.320;43.990;2023-02-15T14:35:54;17.17;;;7.22;;
74972;SDS011;63529;56.320;43.990;2023-02-15T14:41:22;15.88;;;6.78;;
74972;SDS011;63529;56.320;43.990;2023-02-15T14:49:43;14.50;;;6.40;;
74972;SDS011;63529;56.320;43.990;2023-02-15T14:52:09;16.10;;;7.28;;
74972;SDS011;63529;56.320;43.990;2023-02-15T14:59:45;13.27;;;6.53;;
74972;SDS011;63529;56.320;43.990;2023-02-15T15:05:01;13.50;;;6.50;;
74972;SDS011;63529;56.320;43.990;2023-02-15T15:12:43;13.05;;;6.63;;
74972;SDS011;63529;56.320;43.990;2023-02-15T15:15:14;14.30;;;6.43;;
74972;SDS011;63529;56.320;43.990;2023-02-15T15:25:43;14.30;;;6.85;;
74972;SDS011;63529;56.320;43.990;2023-02-15T15:34:04;12.02;;;6.28;;
74972;SDS011;63529;56.320;43.990;2023-02-15T15:37:09;12.43;;;5.72;;
74972;SDS011;63529;56.320;43.990;2023-02-15T15:48:32;13.85;;;6.18;;
74972;SDS011;63529;56.320;43.990;2023-02-15T15:51:04;13.63;;;5.90;;
74972;SDS011;63529;56.320;43.990;2023-02-15T15:53:39;11.90;;;5.43;;
74972;SDS011;63529;56.320;43.990;2023-02-15T15:56:29;9.70;;;5.40;;
74972;SDS011;63529;56.320;43.990;2023-02-15T15:58:57;12.85;;;5.82;;
74972;SDS011;63529;56.320;43.990;2023-02-15T16:01:28;13.13;;;6.10;;
74972;SDS011;63529;56.320;43.990;2023-02-15T16:03:56;13.52;;;5.97;;
74972;SDS011;63529;56.320;43.990;2023-02-15T16:06:41;13.65;;;5.65;;
74972;SDS011;63529;56.320;43.990;2023-02-15T16:11:39;11.07;;;5.78;;
74972;SDS011;63529;56.320;43.990;2023-02-15T16:16:50;13.70;;;6.05;;
74972;SDS011;63529;56.320;43.990;2023-02-15T16:19:20;13.68;;;5.95;;
74972;SDS011;63529;56.320;43.990;2023-02-15T16:21:50;13.43;;;5.05;;
74972;SDS011;63529;56.320;43.990;2023-02-15T16:29:29;13.43;;;6.13;;
74972;SDS011;63529;56.320;43.990;2023-02-15T16:32:04;11.32;;;5.65;;
74972;SDS011;63529;56.320;43.990;2023-02-15T16:34:50;11.63;;;5.68;;
74972;SDS011;63529;56.320;43.990;2023-02-15T16:37:24;11.15;;;5.63;;
74972;SDS011;63529;56.320;43.990;2023-02-15T16:39:53;15.13;;;6.32;;
74972;SDS011;63529;56.320;43.990;2023-02-15T16:42:21;13.57;;;7.47;;
74972;SDS011;63529;56.320;43.990;2023-02-15T16:44:49;14.20;;;6.50;;
74972;SDS011;63529;56.320;43.990;2023-02-15T16:47:41;10.88;;;5.65;;
74972;SDS011;63529;56.320;43.990;2023-02-15T16:50:17;14.65;;;6.35;;
74972;SDS011;63529;56.320;43.990;2023-02-15T16:52:49;13.88;;;5.45;;
74972;SDS011;63529;56.320;43.990;2023-02-15T16:55:21;20.02;;;6.50;;
74972;SDS011;63529;56.320;43.990;2023-02-15T16:57:49;14.00;;;5.90;;
74972;SDS011;63529;56.320;43.990;2023-02-15T17:00:18;13.05;;;6.07;;
74972;SDS011;63529;56.320;43.990;2023-02-15T17:03:01;13.45;;;5.82;;
74972;SDS011;63529;56.320;43.990;2023-02-15T17:05:39;12.52;;;5.93;;
74972;SDS011;63529;56.320;43.990;2023-02-15T17:08:10;15.18;;;6.03;;
74972;SDS011;63529;56.320;43.990;2023-02-15T17:10:44;12.55;;;5.07;;
74972;SDS011;63529;56.320;43.990;2023-02-15T17:13:26;11.77;;;6.10;;
74972;SDS011;63529;56.320;43.990;2023-02-15T17:18:31;15.05;;;6.45;;
74972;SDS011;63529;56.320;43.990;2023-02-15T17:21:09;14.32;;;6.45;;
74972;SDS011;63529;56.320;43.990;2023-02-15T17:23:48;12.60;;;5.15;;
74972;SDS011;63529;56.320;43.990;2023-02-15T17:28:48;13.63;;;5.57;;
74972;SDS011;63529;56.320;43.990;2023-02-15T17:31:14;12.85;;;5.63;;
74972;SDS011;63529;56.320;43.990;2023-02-15T17:33:42;16.17;;;5.80;;
74972;SDS011;63529;56.320;43.990;2023-02-15T17:36:12;12.52;;;5.45;;
74972;SDS011;63529;56.320;43.990;2023-02-15T17:41:23;18.25;;;7.07;;
74972;SDS011;63529;56.320;43.990;2023-02-15T17:43:50;18.20;;;6.65;;
74972;SDS011;63529;56.320;43.990;2023-02-15T17:46:17;14.55;;;5.85;;
74972;SDS011;63529;56.320;43.990;2023-02-15T17:48:47;14.65;;;5.90;;
74972;SDS011;63529;56.320;43.990;2023-02-15T17:51:14;14.43;;;6.93;;
74972;SDS011;63529;56.320;43.990;2023-02-15T17:53:42;14.77;;;6.78;;
74972;SDS011;63529;56.320;43.990;2023-02-15T17:56:27;14.23;;;6.20;;
74972;SDS011;63529;56.320;43.990;2023-02-15T17:58:53;13.93;;;6.57;;
74972;SDS011;63529;56.320;43.990;2023-02-15T18:01:19;12.85;;;5.55;;
74972;SDS011;63529;56.320;43.990;2023-02-15T18:04:07;12.93;;;5.93;;
74972;SDS011;63529;56.320;43.990;2023-02-15T18:06:54;13.48;;;5.95;;
74972;SDS011;63529;56.320;43.990;2023-02-15T18:09:39;13.00;;;6.00;;
74972;SDS011;63529;56.320;43.990;2023-02-15T18:12:25;14.70;;;6.40;;
74972;SDS011;63529;56.320;43.990;2023-02-15T18:14:53;12.43;;;5.57;;
74972;SDS011;63529;56.320;43.990;2023-02-15T18:17:31;13.50;;;5.25;;
74972;SDS011;63529;56.320;43.990;2023-02-15T18:19:59;13.85;;;6.13;;
74972;SDS011;63529;56.320;43.990;2023-02-15T18:22:31;13.75;;;5.68;;
74972;SDS011;63529;56.320;43.990;2023-02-15T18:24:58;13.00;;;5.72;;
74972;SDS011;63529;56.320;43.990;2023-02-15T18:27:24;12.18;;;5.38;;
74972;SDS011;63529;56.320;43.990;2023-02-15T18:29:50;12.57;;;5.45;;
74972;SDS011;63529;56.320;43.990;2023-02-15T18:32:27;11.68;;;5.53;;
74972;SDS011;63529;56.320;43.990;2023-02-15T18:34:58;11.65;;;5.35;;